Superferry II — SWKV — position and weather

sailwx.info

Track history (hours):
 
Tides and Currents Weather Stations Pressure Air Temp Water Temp Dewpoint Dewpoint Depression Visibility Wind Speed Wind Dir Waves Ship Positions

Superferry II

Last reported at 2016-Oct-14 07:24 UTC. Time now 2016-Dec-03 09:34 UTC.
Position N 37°58' E 023°34'.
Warning: this ship's position is 50 days out of date.

Length 122 m; draft 4.7 m.

Type: Passenger vessel. MMSI: 237001000.

Date/timePositionNaut miles runAvg speedWind from/ knotsBaromVisibWave heightAir tempDewpointWater temp
2016-Oct-14 07:24N 37°58' E 023°34'0 0.0
2016-Oct-14 02:34N 37°58' E 023°34'0 0.0
2016-Oct-13 22:34N 37°58' E 023°34'0 0.0
2016-Oct-13 21:33N 37°58' E 023°34'0 0.0
2016-Oct-13 20:34N 37°58' E 023°34'0 0.0
2016-Oct-13 17:33N 37°58' E 023°34'0 0.0
2016-Oct-13 16:33N 37°58' E 023°34'0 0.0
2016-Oct-13 14:33N 37°58' E 023°34'0 0.0
2016-Oct-13 13:33N 37°58' E 023°34'0 0.0
2016-Oct-13 12:33N 37°58' E 023°34'4 0.6
2016-Oct-13 06:34N 37°57' E 023°38'0 0.0
2016-Oct-13 03:33N 37°57' E 023°38'0 0.0
2016-Oct-13 01:33N 37°57' E 023°38'0 0.0
2016-Oct-13 00:34N 37°57' E 023°38'0 0.0
2016-Oct-12 22:33N 37°57' E 023°38'0 0.0
2016-Oct-12 21:33N 37°57' E 023°38'0 0.0
2016-Oct-12 19:33N 37°57' E 023°38'0 0.0
2016-Oct-12 18:33N 37°57' E 023°38'0 0.0
2016-Oct-12 17:33N 37°57' E 023°38'12 3.0
2016-Oct-12 13:33N 37°45' E 023°43'2210.2
2016-Oct-12 11:25N 37°59' E 024°05'67 8.4
2016-Oct-12 03:28N 37°28' E 025°20'0 0.0
2016-Oct-12 01:32N 37°28' E 025°20'0 0.0
2016-Oct-11 19:20N 37°28' E 025°20'10 5.9
2016-Oct-11 17:33N 37°32' E 025°08'5416.2
2016-Oct-11 14:13N 37°60' E 024°09'64 6.0
2016-Oct-11 03:34N 37°28' E 025°19'0 0.0
2016-Oct-11 02:34N 37°28' E 025°19'0 0.0
2016-Oct-11 01:34N 37°28' E 025°19'0 0.0
2016-Oct-10 23:34N 37°28' E 025°19'0 0.0
2016-Oct-10 22:34N 37°28' E 025°19'62 7.6
2016-Oct-10 14:22N 37°59' E 024°11'8 1.2
2016-Oct-10 07:33N 37°56' E 024°21'55 9.1
2016-Oct-10 01:33N 37°28' E 025°20'0 0.0
2016-Oct-10 00:33N 37°28' E 025°20'9 4.5
2016-Oct-09 22:30N 37°32' E 025°09'3 0.4
2016-Oct-09 14:34N 37°34' E 025°06'12 6.2
2016-Oct-09 12:33N 37°28' E 025°20'0 0.0
2016-Oct-09 11:33N 37°28' E 025°20'0 0.0
2016-Oct-09 09:34N 37°28' E 025°20'0 0.0
2016-Oct-09 08:33N 37°28' E 025°20'0 0.0
2016-Oct-09 04:34N 37°28' E 025°20'0 0.0
2016-Oct-09 03:34N 37°28' E 025°20'0 0.0
2016-Oct-09 01:33N 37°28' E 025°20'0 0.0
2016-Oct-09 00:33N 37°28' E 025°20'12 1.7
2016-Oct-08 17:33N 37°33' E 025°07'5216.1
2016-Oct-08 14:20N 37°59' E 024°10'44 9.2
2016-Oct-08 09:32N 37°38' E 024°59'19 8.8
2016-Oct-08 07:21N 37°28' E 025°20'31 2.1
2016-Oct-07 16:33N 37°47' E 024°49'3114.9
2016-Oct-07 14:30N 37°58' E 024°13'61 5.6
2016-Oct-07 03:33N 37°28' E 025°20'0 0.0
2016-Oct-07 02:33N 37°28' E 025°20'0 0.0
2016-Oct-07 01:33N 37°28' E 025°20'0 0.0
2016-Oct-06 23:33N 37°28' E 025°20'0 0.0
2016-Oct-06 22:33N 37°28' E 025°20'0 0.0
2016-Oct-06 21:32N 37°28' E 025°20'0 0.0
2016-Oct-06 20:33N 37°28' E 025°20'0 0.0
2016-Oct-06 19:33N 37°28' E 025°20'6412.2
2016-Oct-06 14:18N 37°59' E 024°09'55 5.6
2016-Oct-06 04:31N 37°32' E 025°09'9 9.4
2016-Oct-06 03:33N 37°28' E 025°19'0 0.0
2016-Oct-06 02:34N 37°28' E 025°19'0 0.0
2016-Oct-06 01:33N 37°28' E 025°19'0 0.0
2016-Oct-06 00:34N 37°28' E 025°19'0 0.0
2016-Oct-05 23:33N 37°28' E 025°19'0 0.0
2016-Oct-05 20:33N 37°28' E 025°19'0 0.0
2016-Oct-05 19:33N 37°28' E 025°19'10 5.1
2016-Oct-05 17:33N 37°32' E 025°08'60 6.7
2016-Oct-05 08:31N 38°01' E 024°01'71 5.1
2016-Oct-04 18:33N 37°28' E 025°20'4214.0
2016-Oct-04 15:32N 37°53' E 024°37'2318.6
2016-Oct-04 14:19N 37°59' E 024°09'7 1.2
2016-Oct-04 08:28N 38°01' E 024°01'  
Track history (hours):
 
Tides and Currents Weather Stations Pressure Air Temp Water Temp Dewpoint Dewpoint Depression Visibility Wind Speed Wind Dir Waves Ship Positions

Superferry II

Last reported at 2016-Oct-14 07:24 UTC. Time now 2016-Dec-03 09:34 UTC.
Position N 37°58' E 023°34'.
Warning: this ship's position is 50 days out of date.

Length 122 m; draft 4.7 m.

Type: Passenger vessel. MMSI: 237001000.

Date/timePositionNaut miles runAvg speedWind from/ knotsBaromVisibWave heightAir tempDewpointWater temp
2016-Oct-14 07:24N 37°58' E 023°34'0 0.0
2016-Oct-14 02:34N 37°58' E 023°34'0 0.0
2016-Oct-13 22:34N 37°58' E 023°34'0 0.0
2016-Oct-13 21:33N 37°58' E 023°34'0 0.0
2016-Oct-13 20:34N 37°58' E 023°34'0 0.0
2016-Oct-13 17:33N 37°58' E 023°34'0 0.0
2016-Oct-13 16:33N 37°58' E 023°34'0 0.0
2016-Oct-13 14:33N 37°58' E 023°34'0 0.0
2016-Oct-13 13:33N 37°58' E 023°34'0 0.0
2016-Oct-13 12:33N 37°58' E 023°34'4 0.6
2016-Oct-13 06:34N 37°57' E 023°38'0 0.0
2016-Oct-13 03:33N 37°57' E 023°38'0 0.0
2016-Oct-13 01:33N 37°57' E 023°38'0 0.0
2016-Oct-13 00:34N 37°57' E 023°38'0 0.0
2016-Oct-12 22:33N 37°57' E 023°38'0 0.0
2016-Oct-12 21:33N 37°57' E 023°38'0 0.0
2016-Oct-12 19:33N 37°57' E 023°38'0 0.0
2016-Oct-12 18:33N 37°57' E 023°38'0 0.0
2016-Oct-12 17:33N 37°57' E 023°38'12 3.0
2016-Oct-12 13:33N 37°45' E 023°43'2210.2
2016-Oct-12 11:25N 37°59' E 024°05'67 8.4
2016-Oct-12 03:28N 37°28' E 025°20'0 0.0
2016-Oct-12 01:32N 37°28' E 025°20'0 0.0
2016-Oct-11 19:20N 37°28' E 025°20'10 5.9
2016-Oct-11 17:33N 37°32' E 025°08'5416.2
2016-Oct-11 14:13N 37°60' E 024°09'64 6.0
2016-Oct-11 03:34N 37°28' E 025°19'0 0.0
2016-Oct-11 02:34N 37°28' E 025°19'0 0.0
2016-Oct-11 01:34N 37°28' E 025°19'0 0.0
2016-Oct-10 23:34N 37°28' E 025°19'0 0.0
2016-Oct-10 22:34N 37°28' E 025°19'62 7.6
2016-Oct-10 14:22N 37°59' E 024°11'8 1.2
2016-Oct-10 07:33N 37°56' E 024°21'55 9.1
2016-Oct-10 01:33N 37°28' E 025°20'0 0.0
2016-Oct-10 00:33N 37°28' E 025°20'9 4.5
2016-Oct-09 22:30N 37°32' E 025°09'3 0.4
2016-Oct-09 14:34N 37°34' E 025°06'12 6.2
2016-Oct-09 12:33N 37°28' E 025°20'0 0.0
2016-Oct-09 11:33N 37°28' E 025°20'0 0.0
2016-Oct-09 09:34N 37°28' E 025°20'0 0.0
2016-Oct-09 08:33N 37°28' E 025°20'0 0.0
2016-Oct-09 04:34N 37°28' E 025°20'0 0.0
2016-Oct-09 03:34N 37°28' E 025°20'0 0.0
2016-Oct-09 01:33N 37°28' E 025°20'0 0.0
2016-Oct-09 00:33N 37°28' E 025°20'12 1.7
2016-Oct-08 17:33N 37°33' E 025°07'5216.1
2016-Oct-08 14:20N 37°59' E 024°10'44 9.2
2016-Oct-08 09:32N 37°38' E 024°59'19 8.8
2016-Oct-08 07:21N 37°28' E 025°20'31 2.1
2016-Oct-07 16:33N 37°47' E 024°49'3114.9
2016-Oct-07 14:30N 37°58' E 024°13'61 5.6
2016-Oct-07 03:33N 37°28' E 025°20'0 0.0
2016-Oct-07 02:33N 37°28' E 025°20'0 0.0
2016-Oct-07 01:33N 37°28' E 025°20'0 0.0
2016-Oct-06 23:33N 37°28' E 025°20'0 0.0
2016-Oct-06 22:33N 37°28' E 025°20'0 0.0
2016-Oct-06 21:32N 37°28' E 025°20'0 0.0
2016-Oct-06 20:33N 37°28' E 025°20'0 0.0
2016-Oct-06 19:33N 37°28' E 025°20'6412.2
2016-Oct-06 14:18N 37°59' E 024°09'55 5.6
2016-Oct-06 04:31N 37°32' E 025°09'9 9.4
2016-Oct-06 03:33N 37°28' E 025°19'0 0.0
2016-Oct-06 02:34N 37°28' E 025°19'0 0.0
2016-Oct-06 01:33N 37°28' E 025°19'0 0.0
2016-Oct-06 00:34N 37°28' E 025°19'0 0.0
2016-Oct-05 23:33N 37°28' E 025°19'0 0.0
2016-Oct-05 20:33N 37°28' E 025°19'0 0.0
2016-Oct-05 19:33N 37°28' E 025°19'10 5.1
2016-Oct-05 17:33N 37°32' E 025°08'60 6.7
2016-Oct-05 08:31N 38°01' E 024°01'71 5.1
2016-Oct-04 18:33N 37°28' E 025°20'4214.0
2016-Oct-04 15:32N 37°53' E 024°37'2318.6
2016-Oct-04 14:19N 37°59' E 024°09'7 1.2
2016-Oct-04 08:28N 38°01' E 024°01'  

Dump ship's entire track history